Time;durP1;ratioP1;P1;durP2;ratioP2;P2;SDS_P1;SDS_P2;PMS_P1;PMS_P2;Temp;Humidity;BMP_temperature;BMP_pressure;BME280_temperature;BME280_humidity;BME280_pressure;Samples;Min_cycle;Max_cycle;Signal;HPM_P1;HPM_P2
2021/10/28 00:12:57;;;;;;;30.25;21.85;;;12.60;52.40;;;;;;5019595;28;20092;-62
2021/10/28 00:15:30;;;;;;;32.00;23.40;;;12.60;52.30;;;;;;5014492;28;20080;-62
2021/10/28 00:18:16;;;;;;;32.95;22.55;;;12.60;52.50;;;;;;5029467;28;20034;-62
2021/10/28 00:20:42;;;;;;;32.17;23.10;;;12.60;52.60;;;;;;5034470;28;20075;-62
2021/10/28 00:23:08;;;;;;;29.42;22.13;;;12.60;52.50;;;;;;5049769;28;20477;-62
2021/10/28 00:25:38;;;;;;;30.48;23.35;;;12.50;52.20;;;;;;5053220;28;20020;-62
2021/10/28 00:28:06;;;;;;;34.17;22.13;;;12.50;52.20;;;;;;5022233;28;20399;-62
2021/10/28 00:30:32;;;;;;;31.55;22.25;;;12.50;52.60;;;;;;5022207;28;20029;-62
2021/10/28 00:32:58;;;;;;;29.80;23.65;;;12.50;52.50;;;;;;5046673;28;20025;-62
2021/10/28 00:35:24;;;;;;;31.30;22.02;;;12.50;52.40;;;;;;5044373;28;20048;-62
2021/10/28 00:37:50;;;;;;;29.05;21.88;;;12.50;52.60;;;;;;5032810;28;20046;-62
2021/10/28 00:40:18;;;;;;;30.70;22.75;;;12.50;52.20;;;;;;5032477;28;20411;-62
2021/10/28 00:42:43;;;;;;;31.25;22.45;;;12.50;52.60;;;;;;5020000;28;20030;-62
2021/10/28 00:45:12;;;;;;;32.25;22.42;;;12.50;52.80;;;;;;5013980;28;20371;-62
2021/10/28 00:47:39;;;;;;;32.13;22.50;;;12.50;52.80;;;;;;5025887;28;20036;-62
2021/10/28 00:50:07;;;;;;;31.73;22.02;;;12.50;52.60;;;;;;5033638;28;20052;-62
2021/10/28 00:52:37;;;;;;;28.55;22.30;;;12.50;52.80;;;;;;5043087;28;20056;-62
2021/10/28 00:55:08;;;;;;;27.95;22.13;;;12.40;52.50;;;;;;5053528;28;20025;-62
2021/10/28 00:57:34;;;;;;;29.23;22.15;;;12.40;52.50;;;;;;5041207;28;20036;-62
2021/10/28 01:00:01;;;;;;;27.88;21.98;;;12.40;52.60;;;;;;5032070;28;20041;-62
2021/10/28 01:02:26;;;;;;;25.08;20.80;;;12.40;52.60;;;;;;5041838;28;20041;-62
2021/10/28 01:04:52;;;;;;;30.25;22.00;;;12.40;52.50;;;;;;5046408;28;20029;-62
2021/10/28 01:07:18;;;;;;;26.80;21.10;;;12.40;52.70;;;;;;5049737;28;20032;-62
2021/10/28 01:09:43;;;;;;;27.27;21.60;;;12.40;52.80;;;;;;5053359;28;20139;-62
2021/10/28 01:12:09;;;;;;;31.52;22.05;;;12.40;52.70;;;;;;5044936;28;20021;-62
2021/10/28 01:14:44;;;;;;;29.88;20.38;;;12.30;52.80;;;;;;5028853;28;20065;-62
2021/10/28 01:17:10;;;;;;;27.73;21.17;;;12.30;52.90;;;;;;5024803;28;20033;-62
2021/10/28 01:19:37;;;;;;;28.73;20.85;;;12.20;52.70;;;;;;5015847;28;20040;-62
2021/10/28 01:22:03;;;;;;;27.05;20.35;;;12.20;53.20;;;;;;5035168;28;20022;-62
2021/10/28 01:24:28;;;;;;;25.65;20.10;;;12.30;54.20;;;;;;5032202;28;20037;-62
2021/10/28 01:27:04;;;;;;;26.85;20.65;;;12.40;54.20;;;;;;5032231;28;20026;-62
2021/10/28 01:29:31;;;;;;;26.25;21.08;;;12.40;53.80;;;;;;5032102;28;20025;-62
2021/10/28 01:32:06;;;;;;;27.73;19.20;;;12.30;53.50;;;;;;5036275;28;20024;-62
2021/10/28 01:34:31;;;;;;;28.85;19.55;;;12.30;53.10;;;;;;5051335;28;20394;-62
2021/10/28 01:36:59;;;;;;;29.95;20.45;;;12.20;53.60;;;;;;5050412;28;20041;-61
2021/10/28 01:39:25;;;;;;;25.88;19.50;;;12.20;53.80;;;;;;5051892;28;20051;-62
2021/10/28 01:41:53;;;;;;;25.77;20.42;;;12.20;53.70;;;;;;5048036;28;20105;-62
2021/10/28 01:44:20;;;;;;;30.45;21.58;;;12.20;53.50;;;;;;5032857;28;20050;-62
2021/10/28 01:46:46;;;;;;;26.55;19.88;;;12.20;53.40;;;;;;5032684;28;20037;-62
2021/10/28 01:49:29;;;;;;;30.15;21.05;;;12.20;53.50;;;;;;5052762;28;20035;-62
2021/10/28 01:51:56;;;;;;;29.52;20.20;;;12.20;53.20;;;;;;5050422;28;20359;-62
2021/10/28 01:54:22;;;;;;;27.13;19.63;;;12.10;53.40;;;;;;5052971;28;20036;-62
2021/10/28 01:56:50;;;;;;;25.27;19.92;;;12.10;53.70;;;;;;5050707;28;20077;-61
2021/10/28 01:59:16;;;;;;;25.48;19.95;;;12.10;53.90;;;;;;5052544;28;20453;-62
2021/10/28 02:01:42;;;;;;;25.45;20.23;;;12.10;54.00;;;;;;5049737;28;20029;-62
2021/10/28 02:04:07;;;;;;;25.23;18.70;;;12.10;54.20;;;;;;5030905;28;20025;-62
2021/10/28 02:06:33;;;;;;;25.40;18.98;;;12.10;54.70;;;;;;5031906;28;20068;-62
2021/10/28 02:08:59;;;;;;;26.70;20.25;;;12.20;54.80;;;;;;5052196;28;20029;-62
2021/10/28 02:11:26;;;;;;;29.17;19.95;;;12.20;54.90;;;;;;5052529;28;20027;-62
2021/10/28 02:13:52;;;;;;;22.77;18.55;;;12.20;55.30;;;;;;5032068;28;20030;-62
2021/10/28 02:16:18;;;;;;;29.05;19.92;;;12.20;54.70;;;;;;5032633;28;20025;-62
2021/10/28 02:18:44;;;;;;;25.67;18.80;;;12.20;55.10;;;;;;5048753;28;20039;-62
2021/10/28 02:21:10;;;;;;;26.65;18.90;;;12.10;54.70;;;;;;5038541;28;20033;-62
2021/10/28 02:23:36;;;;;;;25.60;18.67;;;12.20;55.00;;;;;;5031616;28;20029;-62
2021/10/28 02:26:50;;;;;;;24.13;18.13;;;12.10;54.40;;;;;;5032514;28;20040;-62
2021/10/28 02:29:15;;;;;;;24.00;18.63;;;12.10;55.00;;;;;;5053098;28;20029;-62
2021/10/28 02:31:43;;;;;;;26.15;18.17;;;12.10;54.30;;;;;;5056204;28;20040;-62
2021/10/28 02:34:10;;;;;;;23.73;17.92;;;12.00;54.30;;;;;;5032280;28;20021;-62
2021/10/28 02:36:44;;;;;;;24.58;18.17;;;12.10;54.60;;;;;;5055876;28;20056;-61
2021/10/28 02:39:10;;;;;;;31.45;19.15;;;12.00;54.60;;;;;;5039422;28;20479;-62
2021/10/28 02:41:37;;;;;;;24.48;19.23;;;12.00;54.80;;;;;;5036089;28;20036;-62
2021/10/28 02:44:03;;;;;;;21.00;17.15;;;12.10;55.50;;;;;;5033833;28;20030;-62
2021/10/28 02:46:29;;;;;;;23.98;18.00;;;12.00;55.90;;;;;;5035945;28;20032;-62
2021/10/28 02:48:55;;;;;;;22.95;18.05;;;12.10;57.00;;;;;;5035434;28;20018;-62
2021/10/28 02:51:20;;;;;;;20.42;17.02;;;12.10;57.30;;;;;;5053122;28;20033;-62
2021/10/28 02:53:46;;;;;;;22.20;17.10;;;12.10;57.50;;;;;;5042089;28;20037;-62
2021/10/28 02:56:14;;;;;;;23.75;17.58;;;12.00;57.30;;;;;;5054576;28;20029;-62
2021/10/28 02:58:39;;;;;;;24.40;18.35;;;12.00;57.90;;;;;;5035786;28;20033;-62
2021/10/28 03:01:05;;;;;;;22.20;16.77;;;12.00;57.50;;;;;;5035988;28;20028;-62
2021/10/28 03:03:31;;;;;;;25.33;18.33;;;12.00;57.30;;;;;;5013897;28;20491;-62
2021/10/28 03:05:56;;;;;;;26.23;18.15;;;12.00;57.70;;;;;;5015701;28;20029;-62
2021/10/28 03:08:22;;;;;;;19.60;16.75;;;12.00;57.50;;;;;;5022469;28;20049;-62
2021/10/28 03:10:49;;;;;;;23.25;18.40;;;12.00;57.80;;;;;;5035414;28;20030;-62
2021/10/28 03:13:19;;;;;;;23.33;18.15;;;12.00;57.80;;;;;;5040065;28;20127;-62
2021/10/28 03:15:44;;;;;;;23.00;17.23;;;12.10;58.50;;;;;;5055343;28;20096;-62
2021/10/28 03:26:13;;;;;;;25.90;17.15;;;12.00;60.80;;;;;;5043896;28;20032;-62
2021/10/28 03:28:39;;;;;;;21.70;16.52;;;11.90;64.90;;;;;;5044628;28;20029;-62
2021/10/28 03:31:04;;;;;;;22.13;15.75;;;12.00;71.60;;;;;;5033622;28;20026;-62
2021/10/28 03:33:32;;;;;;;20.40;15.70;;;11.90;76.30;;;;;;5036092;28;20652;-62
2021/10/28 03:35:58;;;;;;;24.55;16.27;;;11.90;73.10;;;;;;5055037;28;20027;-62
2021/10/28 03:38:29;;;;;;;23.70;17.10;;;11.90;71.60;;;;;;5052268;28;20368;-62
2021/10/28 03:43:48;;;;;;;26.83;19.05;;;11.80;64.90;;;;;;5047389;28;20112;-62
2021/10/28 03:59:52;;;;;;;26.33;18.83;;;11.60;56.90;;;;;;5034619;28;20163;-61
2021/10/28 04:18:34;;;;;;;30.67;20.40;;;11.60;58.40;;;;;;5014493;28;20115;-62
2021/10/28 04:21:22;;;;;;;26.98;19.45;;;11.60;59.00;;;;;;5029564;28;20090;-62
2021/10/28 04:29:16;;;;;;;26.63;18.97;;;11.70;60.20;;;;;;5054115;28;20433;-62
2021/10/28 04:31:42;;;;;;;25.40;19.17;;;11.70;60.40;;;;;;5044586;28;20033;-62
2021/10/28 04:34:10;;;;;;;26.27;19.58;;;11.70;60.60;;;;;;5054159;28;20021;-61
2021/10/28 04:36:36;;;;;;;25.33;18.83;;;11.70;60.60;;;;;;5050001;28;20032;-61
2021/10/28 04:39:09;;;;;;;25.63;19.02;;;11.60;61.20;;;;;;5053788;28;20127;-61
2021/10/28 04:41:36;;;;;;;28.90;19.33;;;11.60;60.70;;;;;;5031390;28;20025;-61
2021/10/28 04:44:02;;;;;;;26.80;19.73;;;11.70;61.30;;;;;;5032229;28;20029;-61
2021/10/28 04:46:28;;;;;;;29.85;19.30;;;11.60;61.00;;;;;;5033501;28;20025;-61
2021/10/28 04:48:53;;;;;;;27.80;20.25;;;11.60;61.10;;;;;;5032473;28;20022;-61
2021/10/28 04:51:19;;;;;;;25.48;18.95;;;11.60;61.10;;;;;;5032768;28;20051;-61
2021/10/28 04:53:45;;;;;;;28.13;19.48;;;11.60;61.10;;;;;;5048318;28;20096;-62
2021/10/28 04:56:10;;;;;;;25.27;19.27;;;11.60;61.30;;;;;;5052422;28;20056;-61
2021/10/28 04:58:36;;;;;;;24.77;18.73;;;11.60;61.10;;;;;;5034531;28;20517;-62
2021/10/28 05:01:02;;;;;;;34.28;20.23;;;11.70;61.40;;;;;;5041345;28;20482;-62
2021/10/28 05:03:28;;;;;;;25.60;18.35;;;11.60;61.30;;;;;;5050101;28;20040;-62
2021/10/28 05:05:53;;;;;;;25.13;18.85;;;11.60;61.50;;;;;;5051963;28;20116;-62
2021/10/28 05:08:19;;;;;;;20.65;16.98;;;11.70;61.70;;;;;;5038620;28;20026;-62
2021/10/28 05:10:45;;;;;;;32.22;17.65;;;11.60;62.00;;;;;;5032142;28;20463;-62
2021/10/28 05:13:13;;;;;;;24.98;17.77;;;11.60;61.70;;;;;;5043036;28;20104;-62
2021/10/28 05:15:50;;;;;;;24.08;16.60;;;11.60;62.00;;;;;;5052848;28;20029;-62
2021/10/28 05:18:20;;;;;;;25.45;18.45;;;11.70;62.20;;;;;;5039259;28;20032;-62
2021/10/28 05:20:46;;;;;;;25.08;17.85;;;11.70;62.20;;;;;;5032497;28;20057;-62
2021/10/28 05:23:12;;;;;;;21.33;16.63;;;11.70;62.10;;;;;;5030863;28;20518;-62
2021/10/28 05:25:38;;;;;;;25.95;17.05;;;11.70;62.40;;;;;;5031717;28;20399;-62
2021/10/28 05:28:04;;;;;;;23.70;17.48;;;11.60;62.40;;;;;;5041367;28;20025;-62
2021/10/28 05:30:29;;;;;;;23.30;16.73;;;11.60;62.50;;;;;;5036074;28;20029;-62
2021/10/28 05:32:58;;;;;;;24.30;16.42;;;11.60;62.20;;;;;;5033979;28;20033;-63
2021/10/28 05:35:25;;;;;;;25.60;16.92;;;11.60;62.50;;;;;;5033040;28;20029;-62
2021/10/28 05:37:51;;;;;;;25.33;16.73;;;11.60;62.30;;;;;;5030393;28;20050;-62
2021/10/28 05:40:17;;;;;;;19.63;16.10;;;11.60;62.30;;;;;;5032760;28;20048;-62
2021/10/28 05:42:47;;;;;;;25.40;17.00;;;11.60;62.70;;;;;;5032973;28;20029;-62
2021/10/28 05:45:13;;;;;;;19.27;15.15;;;11.60;63.20;;;;;;5052694;28;20056;-62
2021/10/28 05:47:38;;;;;;;25.75;16.77;;;11.60;63.10;;;;;;5050643;28;20036;-63
2021/10/28 05:50:10;;;;;;;30.23;18.88;;;11.60;62.90;;;;;;5052550;28;20107;-62
2021/10/28 05:52:36;;;;;;;30.27;19.60;;;11.60;62.90;;;;;;5047124;28;20037;-62
2021/10/28 05:55:03;;;;;;;31.73;19.17;;;11.50;63.50;;;;;;5032411;28;20029;-63
2021/10/28 05:57:31;;;;;;;23.88;18.83;;;11.50;63.30;;;;;;5034120;28;20032;-63
2021/10/28 05:59:56;;;;;;;28.80;19.95;;;11.50;63.60;;;;;;5052539;28;20064;-63
2021/10/28 06:02:22;;;;;;;28.27;19.95;;;11.50;64.20;;;;;;5052898;28;20127;-63
2021/10/28 06:04:48;;;;;;;29.92;19.92;;;11.60;64.50;;;;;;5056697;28;20021;-63
2021/10/28 06:07:13;;;;;;;31.35;19.55;;;11.60;65.00;;;;;;5054667;28;20459;-63
2021/10/28 06:09:42;;;;;;;30.90;19.70;;;11.50;65.60;;;;;;5056525;28;20082;-63
2021/10/28 06:12:09;;;;;;;29.38;19.98;;;11.50;65.50;;;;;;5055406;28;20025;-63
2021/10/28 06:14:35;;;;;;;24.52;19.27;;;11.40;66.40;;;;;;5035083;28;20029;-63
2021/10/28 06:17:08;;;;;;;29.38;19.42;;;11.40;67.00;;;;;;5036452;28;20109;-63
2021/10/28 06:19:35;;;;;;;28.90;19.55;;;11.50;68.30;;;;;;5055284;28;20032;-63
2021/10/28 06:22:01;;;;;;;28.83;19.20;;;11.50;69.50;;;;;;5054852;28;20033;-63
2021/10/28 06:24:27;;;;;;;24.00;18.80;;;11.40;70.50;;;;;;5053105;28;20608;-63
2021/10/28 06:26:53;;;;;;;29.35;20.80;;;11.50;70.80;;;;;;5055257;28;20485;-63
2021/10/28 06:29:19;;;;;;;33.67;21.40;;;11.40;70.40;;;;;;5049915;28;20068;-63
2021/10/28 06:31:47;;;;;;;31.00;19.30;;;11.40;69.40;;;;;;5053929;28;20060;-63
2021/10/28 06:34:18;;;;;;;29.17;20.08;;;11.40;68.20;;;;;;5052935;28;20024;-63
2021/10/28 06:36:45;;;;;;;27.13;20.58;;;11.50;67.10;;;;;;5029461;28;20038;-62
2021/10/28 06:39:11;;;;;;;30.65;20.55;;;11.60;66.10;;;;;;5031748;28;20037;-63
2021/10/28 06:41:37;;;;;;;35.25;20.60;;;11.60;66.20;;;;;;5034620;28;20044;-62
2021/10/28 06:44:03;;;;;;;30.25;20.67;;;11.50;65.90;;;;;;5031015;28;20034;-62
2021/10/28 06:46:29;;;;;;;31.23;20.65;;;11.50;65.80;;;;;;5016064;28;20041;-62
2021/10/28 06:48:56;;;;;;;32.20;19.75;;;11.50;65.50;;;;;;5027860;28;20034;-62
2021/10/28 06:51:22;;;;;;;30.02;19.95;;;11.60;65.50;;;;;;5035738;28;20049;-62
2021/10/28 07:04:47;;;;;;;31.83;21.38;;;11.60;65.10;;;;;;5035445;28;20060;-62
2021/10/28 07:07:14;;;;;;;29.23;22.35;;;11.60;65.20;;;;;;5035512;28;20029;-62
2021/10/28 07:09:47;;;;;;;26.45;20.48;;;11.60;65.00;;;;;;5052803;28;20474;-63
2021/10/28 07:12:38;;;;;;;27.52;20.02;;;11.60;64.90;;;;;;5054055;28;20090;-63
2021/10/28 07:15:23;;;;;;;26.70;19.02;;;11.70;64.50;;;;;;5030509;28;20117;-63
2021/10/28 07:21:27;;;;;;;31.73;21.27;;;11.80;64.20;;;;;;5034361;28;20525;-63
2021/10/28 07:26:25;;;;;;;30.88;22.20;;;11.80;64.00;;;;;;5035317;28;20025;-63
2021/10/28 07:38:08;;;;;;;26.08;20.70;;;11.80;64.20;;;;;;5035159;28;20022;-62
2021/10/28 08:13:26;;;;;;;29.10;20.20;;;12.20;62.60;;;;;;5054676;28;20555;-63
2021/10/28 08:15:01;;;;;;;31.98;22.67;;;12.20;61.90;;;;;;5033619;28;20394;-63
2021/10/28 08:20:43;;;;;;;31.13;21.75;;;12.30;61.70;;;;;;5012005;28;20062;-62
2021/10/28 08:31:04;;;;;;;32.35;21.23;;;12.40;60.60;;;;;;5034280;28;20112;-62
2021/10/28 08:33:30;;;;;;;32.25;21.45;;;12.50;60.50;;;;;;5031678;28;20129;-63
2021/10/28 08:36:06;;;;;;;29.45;20.00;;;12.50;60.20;;;;;;5032729;28;20057;-62
2021/10/28 08:38:34;;;;;;;31.00;20.80;;;12.50;60.50;;;;;;5032656;28;20123;-63
2021/10/28 08:41:02;;;;;;;33.22;21.60;;;12.50;60.30;;;;;;5033918;28;20021;-63
2021/10/28 08:43:31;;;;;;;28.67;20.42;;;12.60;60.80;;;;;;5037139;28;20044;-63
2021/10/28 08:45:58;;;;;;;30.63;21.55;;;12.70;59.90;;;;;;5053441;28;20032;-62
2021/10/28 08:48:28;;;;;;;32.88;22.85;;;12.80;59.60;;;;;;5047852;28;20435;-63
2021/10/28 08:51:08;;;;;;;32.90;25.15;;;12.90;59.40;;;;;;5033803;28;20064;-62
2021/10/28 08:56:04;;;;;;;29.50;22.42;;;13.00;59.00;;;;;;5044444;28;20491;-63
2021/10/28 08:59:11;;;;;;;36.20;22.08;;;12.90;58.70;;;;;;5050117;28;20060;-62
2021/10/28 09:29:31;;;;;;;33.53;23.52;;;13.40;57.00;;;;;;5032523;28;20030;-62
2021/10/28 09:45:54;;;;;;;41.28;26.73;;;13.70;55.90;;;;;;5049853;28;20044;-62
2021/10/28 09:51:09;;;;;;;36.80;25.83;;;13.90;54.40;;;;;;5013485;28;20029;-62
2021/10/28 09:59:27;;;;;;;36.05;26.63;;;14.10;54.00;;;;;;5031839;28;20060;-62
2021/10/28 10:02:15;;;;;;;45.90;29.33;;;14.10;53.90;;;;;;5043213;28;20064;-62
2021/10/28 10:04:44;;;;;;;35.30;26.92;;;14.20;54.10;;;;;;5052712;28;20036;-63
2021/10/28 10:07:16;;;;;;;37.95;29.40;;;14.20;54.00;;;;;;5035222;28;20442;-62
2021/10/28 10:09:42;;;;;;;37.10;29.00;;;14.20;54.10;;;;;;5033662;28;20112;-62
2021/10/28 10:12:09;;;;;;;34.90;26.77;;;14.20;53.90;;;;;;5037180;28;20109;-62
2021/10/28 10:14:40;;;;;;;38.97;28.65;;;14.30;53.80;;;;;;5031312;28;20025;-62
2021/10/28 10:17:10;;;;;;;37.28;27.67;;;14.40;53.20;;;;;;5044808;28;20029;-63
2021/10/28 10:19:45;;;;;;;41.50;29.83;;;14.50;53.00;;;;;;5052193;28;20120;-62
2021/10/28 11:21:57;;;;;;;42.22;30.52;;;15.40;48.00;;;;;;5040057;28;20390;-62
2021/10/28 11:28:15;;;;;;;38.45;27.83;;;15.50;47.30;;;;;;5026505;28;20139;-62
2021/10/28 11:30:44;;;;;;;33.13;26.90;;;15.60;46.30;;;;;;5030156;28;20554;-62
2021/10/28 12:45:56;;;;;;;38.03;25.95;;;16.70;38.20;;;;;;5053992;28;20048;-62
2021/10/28 12:51:45;;;;;;;34.60;24.00;;;16.50;37.60;;;;;;5050989;28;20500;-62
2021/10/28 14:21:52;;;;;;;34.78;22.67;;;17.00;33.90;;;;;;5031473;28;20103;-62
2021/10/28 15:29:49;;;;;;;42.38;30.00;;;16.00;39.00;;;;;;5033018;28;20041;-62
2021/10/28 15:37:56;;;;;;;44.05;28.65;;;15.90;39.20;;;;;;5052699;28;20360;-62
2021/10/28 15:51:19;;;;;;;43.25;28.55;;;15.80;39.90;;;;;;5034684;28;20392;-62
2021/10/28 16:23:33;;;;;;;47.47;32.58;;;15.30;42.40;;;;;;5033516;28;20056;-61
2021/10/28 16:26:02;;;;;;;44.28;32.38;;;15.30;41.80;;;;;;5034058;28;20033;-61
2021/10/28 16:28:29;;;;;;;47.60;33.28;;;15.30;42.50;;;;;;5042776;28;20147;-61
2021/10/28 16:30:55;;;;;;;46.25;31.50;;;15.20;42.50;;;;;;5053356;28;20025;-61
2021/10/28 16:33:21;;;;;;;48.75;33.53;;;15.20;42.60;;;;;;5049710;28;20049;-61
2021/10/28 16:35:47;;;;;;;51.15;33.45;;;15.20;42.60;;;;;;5018168;28;20041;-61
2021/10/28 16:38:13;;;;;;;45.83;32.40;;;15.20;43.00;;;;;;5021922;28;20041;-61
2021/10/28 16:40:39;;;;;;;43.22;30.77;;;15.00;42.70;;;;;;5031624;28;20041;-61
2021/10/28 16:43:06;;;;;;;49.00;32.60;;;15.10;43.30;;;;;;5039704;28;20360;-61
2021/10/28 16:45:33;;;;;;;45.58;32.47;;;15.10;43.50;;;;;;5052432;28;20140;-61
2021/10/28 16:47:59;;;;;;;42.88;31.85;;;15.10;43.90;;;;;;5040205;28;20021;-61
2021/10/28 16:50:25;;;;;;;49.38;33.10;;;15.00;44.00;;;;;;5050163;28;20115;-61
2021/10/28 16:52:51;;;;;;;48.60;32.83;;;15.00;44.20;;;;;;5031423;28;20057;-63
2021/10/28 16:55:17;;;;;;;54.70;33.83;;;15.00;44.00;;;;;;5032535;28;20582;-73
2021/10/28 16:57:44;;;;;;;52.05;33.50;;;14.90;43.10;;;;;;5034956;28;20052;-72
2021/10/28 17:00:10;;;;;;;63.30;42.42;;;15.00;43.40;;;;;;5027360;28;20040;-72
2021/10/28 17:02:36;;;;;;;49.75;34.42;;;14.90;42.90;;;;;;5030960;28;20034;-72
2021/10/28 17:05:02;;;;;;;50.30;34.85;;;14.80;43.50;;;;;;5045597;28;20494;-72
2021/10/28 17:07:28;;;;;;;50.53;32.88;;;14.80;43.40;;;;;;5030861;28;20033;-72
2021/10/28 17:09:53;;;;;;;49.33;33.42;;;14.80;43.30;;;;;;5032986;28;20131;-72
2021/10/28 17:12:20;;;;;;;48.55;32.13;;;14.70;43.70;;;;;;5032406;28;20033;-73
2021/10/28 17:14:48;;;;;;;46.15;32.03;;;14.70;43.30;;;;;;5032974;28;20033;-72
2021/10/28 17:17:14;;;;;;;52.60;34.22;;;14.70;43.40;;;;;;5030547;28;20060;-61
2021/10/28 17:19:41;;;;;;;51.42;34.17;;;14.70;44.50;;;;;;5032293;28;20124;-62
2021/10/28 17:22:07;;;;;;;60.88;42.17;;;14.80;44.50;;;;;;5046733;28;20021;-61
2021/10/28 17:24:45;;;;;;;76.53;57.63;;;14.80;44.70;;;;;;5033954;28;20029;-61
2021/10/28 17:27:11;;;;;;;100.35;78.13;;;14.80;44.80;;;;;;5033122;28;20069;-61
2021/10/28 17:29:38;;;;;;;66.97;49.50;;;14.80;44.90;;;;;;5031867;28;20098;-61
2021/10/28 17:32:05;;;;;;;54.70;40.10;;;14.80;45.00;;;;;;5032964;28;20026;-61
2021/10/28 17:34:46;;;;;;;52.65;37.92;;;14.70;45.30;;;;;;5030971;28;20037;-61
2021/10/28 17:37:12;;;;;;;53.78;36.63;;;14.70;44.90;;;;;;5026992;28;20090;-61
2021/10/28 17:39:37;;;;;;;51.50;33.50;;;14.70;45.30;;;;;;5031191;28;20041;-61
2021/10/28 17:42:03;;;;;;;47.30;33.05;;;14.60;45.10;;;;;;5032844;28;20025;-61
2021/10/28 17:44:37;;;;;;;47.92;33.10;;;14.60;45.10;;;;;;5031935;28;20029;-61
2021/10/28 17:47:04;;;;;;;48.58;33.20;;;14.70;45.30;;;;;;5039354;28;20033;-61
2021/10/28 17:49:29;;;;;;;47.13;32.33;;;14.60;44.80;;;;;;5031734;28;20466;-61
2021/10/28 17:51:55;;;;;;;57.70;36.13;;;14.60;45.00;;;;;;5032733;28;20026;-61
2021/10/28 17:54:21;;;;;;;52.97;33.78;;;14.60;45.00;;;;;;5031812;28;20032;-61
2021/10/28 17:56:47;;;;;;;56.88;36.28;;;14.60;45.20;;;;;;5032972;28;20040;-61
2021/10/28 17:59:12;;;;;;;55.03;34.90;;;14.60;45.50;;;;;;5048038;28;20482;-62
2021/10/28 18:01:41;;;;;;;49.70;34.33;;;14.60;45.50;;;;;;5055460;28;20031;-61
2021/10/28 18:04:09;;;;;;;55.15;36.50;;;14.50;45.10;;;;;;5042977;28;20434;-62
2021/10/28 18:06:35;;;;;;;54.95;35.63;;;14.60;45.20;;;;;;5036744;28;20025;-61
2021/10/28 18:09:02;;;;;;;57.42;38.33;;;14.60;45.10;;;;;;5039333;28;20029;-61
2021/10/28 18:11:29;;;;;;;57.13;36.83;;;14.50;45.40;;;;;;5056500;28;20029;-62
2021/10/28 18:13:57;;;;;;;55.38;35.78;;;14.50;45.50;;;;;;5053329;28;20021;-62
2021/10/28 18:16:25;;;;;;;55.63;36.35;;;14.50;45.00;;;;;;5049660;28;20048;-62
2021/10/28 18:18:55;;;;;;;54.08;35.83;;;14.50;45.60;;;;;;5052897;28;20025;-62
2021/10/28 18:21:26;;;;;;;65.57;39.92;;;14.50;45.60;;;;;;5056466;28;20025;-62
2021/10/28 18:23:54;;;;;;;58.92;38.78;;;14.50;45.40;;;;;;5053468;28;20108;-62
2021/10/28 18:26:23;;;;;;;58.63;38.40;;;14.50;45.70;;;;;;5056299;28;20474;-62
2021/10/28 18:28:50;;;;;;;54.80;37.97;;;14.50;45.80;;;;;;5054526;28;20414;-62
2021/10/28 18:31:16;;;;;;;56.90;36.75;;;14.50;45.70;;;;;;5056164;28;20106;-62
2021/10/28 18:33:43;;;;;;;54.45;36.72;;;14.50;45.60;;;;;;5044291;28;20039;-62
2021/10/28 18:36:10;;;;;;;60.75;37.67;;;14.40;45.80;;;;;;5036238;28;20494;-62
2021/10/28 18:38:36;;;;;;;55.22;35.55;;;14.40;46.10;;;;;;5041514;28;20445;-62
2021/10/28 18:41:03;;;;;;;58.85;36.25;;;14.40;46.30;;;;;;5056173;28;20043;-62
2021/10/28 18:43:29;;;;;;;55.53;35.65;;;14.40;46.40;;;;;;5048952;28;20026;-62
2021/10/28 18:45:56;;;;;;;52.33;36.72;;;14.30;46.60;;;;;;5039432;28;20474;-62
2021/10/28 18:48:22;;;;;;;56.75;37.40;;;14.30;46.60;;;;;;5049711;28;20060;-62
2021/10/28 18:50:48;;;;;;;54.17;37.42;;;14.30;46.60;;;;;;5034613;28;20029;-62
2021/10/28 18:53:14;;;;;;;54.55;37.13;;;14.30;46.70;;;;;;5037898;28;20025;-62
2021/10/28 18:55:40;;;;;;;62.55;37.30;;;14.30;47.10;;;;;;5045148;28;20116;-62
2021/10/28 18:58:07;;;;;;;59.30;38.58;;;14.20;47.00;;;;;;5033219;28;22263;-62
2021/10/28 19:00:32;;;;;;;58.22;36.90;;;14.20;46.90;;;;;;5035866;28;20383;-62
2021/10/28 19:02:59;;;;;;;55.35;36.47;;;14.20;46.70;;;;;;5034724;28;20033;-61
2021/10/28 19:05:24;;;;;;;55.65;35.67;;;14.20;46.70;;;;;;5035288;28;20033;-62
2021/10/28 19:07:50;;;;;;;56.25;35.33;;;14.20;46.70;;;;;;5035066;28;20032;-62
2021/10/28 19:10:16;;;;;;;55.17;35.45;;;14.20;46.50;;;;;;5049735;28;20069;-62
2021/10/28 19:12:42;;;;;;;58.22;37.03;;;14.20;46.60;;;;;;5041677;28;20029;-62
2021/10/28 19:15:09;;;;;;;57.50;36.70;;;14.20;46.70;;;;;;5017329;28;20034;-61
2021/10/28 19:17:35;;;;;;;52.90;35.75;;;14.20;47.00;;;;;;5015972;28;20149;-62
2021/10/28 19:20:03;;;;;;;53.85;36.13;;;14.10;46.90;;;;;;5033026;28;20084;-62
2021/10/28 19:22:32;;;;;;;52.05;34.90;;;14.10;47.10;;;;;;5052266;28;20029;-62
2021/10/28 19:25:00;;;;;;;62.22;36.72;;;14.10;47.30;;;;;;5036800;28;20044;-62
2021/10/28 19:27:26;;;;;;;57.28;37.20;;;14.10;47.50;;;;;;5020717;28;20033;-62
2021/10/28 19:29:58;;;;;;;58.50;38.05;;;14.00;47.10;;;;;;5030896;28;20032;-62
2021/10/28 19:32:25;;;;;;;57.45;36.20;;;14.10;47.50;;;;;;5035144;28;20099;-62
2021/10/28 19:34:51;;;;;;;58.38;35.67;;;14.10;47.10;;;;;;5034410;28;20038;-62
2021/10/28 19:47:44;;;;;;;55.22;36.63;;;14.00;47.30;;;;;;5035325;28;20037;-61
2021/10/28 19:50:12;;;;;;;61.10;39.38;;;14.00;47.40;;;;;;5033802;28;20092;-61
2021/10/28 19:52:39;;;;;;;58.92;38.03;;;14.00;47.30;;;;;;5034735;28;20046;-61
2021/10/28 19:55:05;;;;;;;63.38;40.13;;;14.00;47.80;;;;;;5033878;28;20104;-61
2021/10/28 19:57:35;;;;;;;60.67;40.05;;;14.00;47.80;;;;;;5034956;28;20522;-61
2021/10/28 20:00:08;;;;;;;60.33;39.47;;;14.00;47.90;;;;;;5033960;28;20029;-61
2021/10/28 20:21:23;;;;;;;60.88;39.28;;;13.70;49.20;;;;;;5034426;28;20052;-61
2021/10/28 20:23:50;;;;;;;60.35;40.28;;;13.70;49.10;;;;;;5039891;28;20013;-62
2021/10/28 20:26:17;;;;;;;60.17;38.83;;;13.70;49.30;;;;;;5034319;28;20037;-62
2021/10/28 20:28:46;;;;;;;56.03;39.65;;;13.70;49.50;;;;;;5036951;28;20045;-62
2021/10/28 20:31:13;;;;;;;56.33;37.92;;;13.70;49.80;;;;;;5054232;28;20033;-62
2021/10/28 20:33:46;;;;;;;60.65;39.33;;;13.70;49.80;;;;;;5047278;28;20155;-62
2021/10/28 20:38:41;;;;;;;58.97;39.80;;;13.60;49.50;;;;;;5034825;28;20068;-62
2021/10/28 20:41:06;;;;;;;53.95;37.22;;;13.60;50.00;;;;;;5032551;28;20041;-62
2021/10/28 20:43:33;;;;;;;61.17;39.72;;;13.60;49.80;;;;;;5033898;28;20055;-62
2021/10/28 20:45:59;;;;;;;55.47;37.65;;;13.60;49.80;;;;;;5053737;28;20029;-62
2021/10/28 20:48:25;;;;;;;57.67;38.00;;;13.60;50.10;;;;;;5051912;28;20032;-62
2021/10/28 20:50:51;;;;;;;51.70;37.08;;;13.60;50.40;;;;;;5014015;28;20030;-62
2021/10/28 20:53:18;;;;;;;62.65;37.63;;;13.60;50.40;;;;;;5012427;28;20025;-62
2021/10/28 20:55:44;;;;;;;58.28;37.75;;;13.60;50.40;;;;;;5031756;28;20033;-62
2021/10/28 20:58:10;;;;;;;55.72;37.70;;;13.60;50.20;;;;;;5033804;28;20033;-62
2021/10/28 21:00:36;;;;;;;57.00;36.78;;;13.60;50.20;;;;;;5041232;28;20044;-62
2021/10/28 21:03:02;;;;;;;53.05;37.17;;;13.60;50.30;;;;;;5033390;28;20025;-62
2021/10/28 21:05:29;;;;;;;50.47;37.45;;;13.60;50.20;;;;;;5031495;28;20040;-62
2021/10/28 21:07:55;;;;;;;57.00;38.67;;;13.50;50.50;;;;;;5033579;28;20032;-62
2021/10/28 21:10:25;;;;;;;54.80;37.00;;;13.50;50.30;;;;;;5032396;28;20038;-62
2021/10/28 21:12:51;;;;;;;57.50;38.10;;;13.50;50.40;;;;;;5033143;28;20479;-62
2021/10/28 21:15:17;;;;;;;56.42;36.55;;;13.50;50.50;;;;;;5032444;28;20029;-62
2021/10/28 21:17:43;;;;;;;56.97;37.45;;;13.60;50.40;;;;;;5033239;28;20032;-62
2021/10/28 21:20:09;;;;;;;57.40;37.58;;;13.50;50.20;;;;;;5032001;28;20099;-62
2021/10/28 21:22:37;;;;;;;54.83;36.35;;;13.50;49.80;;;;;;5031480;28;20487;-62
2021/10/28 21:25:03;;;;;;;53.58;36.70;;;13.50;50.00;;;;;;5032335;28;20041;-62
2021/10/28 21:27:29;;;;;;;53.20;36.25;;;13.50;50.30;;;;;;5031712;28;20021;-61
2021/10/28 21:30:02;;;;;;;52.60;36.10;;;13.50;50.30;;;;;;5042033;28;20037;-60
2021/10/28 21:32:28;;;;;;;52.92;35.35;;;13.50;50.50;;;;;;5052717;28;20131;-62
2021/10/28 21:34:54;;;;;;;57.55;36.78;;;13.50;50.20;;;;;;5049726;28;20522;-62
2021/10/28 21:37:19;;;;;;;52.70;36.42;;;13.50;50.40;;;;;;5052584;28;20049;-61
2021/10/28 21:39:45;;;;;;;54.45;37.95;;;13.50;50.40;;;;;;5038655;28;20060;-61